sensor_id;sensor_type;location;lat;lon;timestamp;P1;durP1;ratioP1;P2;durP2;ratioP2
55372;SDS011;70018;47.838;16.490;2023-05-07T15:14:58;2.15;;;1.88;;
55372;SDS011;70018;47.838;16.490;2023-05-07T15:17:25;2.33;;;1.70;;
55372;SDS011;70018;47.838;16.490;2023-05-07T15:19:51;3.40;;;1.88;;
55372;SDS011;70018;47.838;16.490;2023-05-07T15:22:19;4.10;;;2.55;;
55372;SDS011;70018;47.838;16.490;2023-05-07T15:24:47;2.50;;;1.63;;
55372;SDS011;70018;47.838;16.490;2023-05-07T15:27:14;2.45;;;1.50;;
55372;SDS011;70018;47.838;16.490;2023-05-07T15:29:42;2.17;;;1.60;;
55372;SDS011;70018;47.838;16.490;2023-05-07T15:32:09;2.42;;;2.03;;
55372;SDS011;70018;47.838;16.490;2023-05-07T15:34:36;2.05;;;1.60;;
55372;SDS011;70018;47.838;16.490;2023-05-07T15:37:03;2.45;;;1.83;;
55372;SDS011;70018;47.838;16.490;2023-05-07T15:39:30;2.05;;;1.65;;
55372;SDS011;70018;47.838;16.490;2023-05-07T15:41:57;3.70;;;1.98;;
55372;SDS011;70018;47.838;16.490;2023-05-07T15:44:23;2.45;;;1.60;;
55372;SDS011;70018;47.838;16.490;2023-05-07T15:46:53;2.78;;;2.20;;
55372;SDS011;70018;47.838;16.490;2023-05-07T15:49:20;2.35;;;1.98;;
55372;SDS011;70018;47.838;16.490;2023-05-07T15:51:48;2.72;;;1.70;;
55372;SDS011;70018;47.838;16.490;2023-05-07T15:54:14;2.60;;;1.95;;
55372;SDS011;70018;47.838;16.490;2023-05-07T15:56:43;2.20;;;1.80;;
55372;SDS011;70018;47.838;16.490;2023-05-07T15:59:10;2.53;;;1.65;;
55372;SDS011;70018;47.838;16.490;2023-05-07T16:01:38;3.63;;;1.80;;
55372;SDS011;70018;47.838;16.490;2023-05-07T16:04:06;2.10;;;1.40;;
55372;SDS011;70018;47.838;16.490;2023-05-07T16:06:34;3.83;;;1.60;;
55372;SDS011;70018;47.838;16.490;2023-05-07T16:09:00;2.30;;;1.80;;
55372;SDS011;70018;47.838;16.490;2023-05-07T16:11:27;1.48;;;1.27;;
55372;SDS011;70018;47.838;16.490;2023-05-07T16:13:58;2.20;;;1.52;;
55372;SDS011;70018;47.838;16.490;2023-05-07T16:16:28;1.85;;;1.27;;
55372;SDS011;70018;47.838;16.490;2023-05-07T16:18:58;1.73;;;1.42;;
55372;SDS011;70018;47.838;16.490;2023-05-07T16:21:25;1.95;;;1.17;;
55372;SDS011;70018;47.838;16.490;2023-05-07T16:23:51;1.40;;;1.30;;
55372;SDS011;70018;47.838;16.490;2023-05-07T16:26:18;1.67;;;1.40;;
55372;SDS011;70018;47.838;16.490;2023-05-07T16:28:45;1.60;;;1.38;;
55372;SDS011;70018;47.838;16.490;2023-05-07T16:31:11;1.80;;;1.20;;
55372;SDS011;70018;47.838;16.490;2023-05-07T16:33:38;1.25;;;1.10;;
55372;SDS011;70018;47.838;16.490;2023-05-07T16:36:05;1.80;;;1.20;;
55372;SDS011;70018;47.838;16.490;2023-05-07T16:38:31;2.00;;;1.58;;
55372;SDS011;70018;47.838;16.490;2023-05-07T16:40:59;1.83;;;1.42;;
55372;SDS011;70018;47.838;16.490;2023-05-07T16:43:26;1.95;;;1.30;;
55372;SDS011;70018;47.838;16.490;2023-05-07T16:45:53;2.65;;;1.67;;
55372;SDS011;70018;47.838;16.490;2023-05-07T16:48:20;2.15;;;1.40;;
55372;SDS011;70018;47.838;16.490;2023-05-07T16:50:47;1.60;;;1.30;;
55372;SDS011;70018;47.838;16.490;2023-05-07T16:53:13;2.05;;;1.30;;
55372;SDS011;70018;47.838;16.490;2023-05-07T16:55:40;2.75;;;1.60;;
55372;SDS011;70018;47.838;16.490;2023-05-07T16:58:07;1.90;;;1.60;;
55372;SDS011;70018;47.838;16.490;2023-05-07T17:00:36;2.22;;;1.40;;
55372;SDS011;70018;47.838;16.490;2023-05-07T17:03:16;1.60;;;1.50;;
55372;SDS011;70018;47.838;16.490;2023-05-07T17:05:42;1.60;;;1.40;;
55372;SDS011;70018;47.838;16.490;2023-05-07T17:08:09;2.45;;;2.00;;
55372;SDS011;70018;47.838;16.490;2023-05-07T17:10:36;2.30;;;1.88;;
55372;SDS011;70018;47.838;16.490;2023-05-07T17:13:02;3.15;;;1.90;;
55372;SDS011;70018;47.838;16.490;2023-05-07T17:15:29;2.00;;;1.70;;
55372;SDS011;70018;47.838;16.490;2023-05-07T17:17:55;1.45;;;1.30;;
55372;SDS011;70018;47.838;16.490;2023-05-07T17:20:22;3.22;;;2.40;;
55372;SDS011;70018;47.838;16.490;2023-05-07T17:22:50;3.42;;;3.00;;
55372;SDS011;70018;47.838;16.490;2023-05-07T17:25:16;3.65;;;2.20;;
55372;SDS011;70018;47.838;16.490;2023-05-07T17:27:44;2.50;;;2.13;;
55372;SDS011;70018;47.838;16.490;2023-05-07T17:30:10;2.28;;;1.73;;
55372;SDS011;70018;47.838;16.490;2023-05-07T17:32:38;2.72;;;2.30;;
55372;SDS011;70018;47.838;16.490;2023-05-07T17:35:05;3.65;;;2.53;;
55372;SDS011;70018;47.838;16.490;2023-05-07T17:37:32;1.80;;;1.50;;
55372;SDS011;70018;47.838;16.490;2023-05-07T17:39:59;2.10;;;1.73;;
55372;SDS011;70018;47.838;16.490;2023-05-07T17:42:26;2.42;;;1.40;;
55372;SDS011;70018;47.838;16.490;2023-05-07T17:44:53;2.30;;;1.80;;
55372;SDS011;70018;47.838;16.490;2023-05-07T17:47:21;1.50;;;1.27;;
55372;SDS011;70018;47.838;16.490;2023-05-07T17:49:47;1.95;;;1.70;;
55372;SDS011;70018;47.838;16.490;2023-05-07T17:52:14;1.70;;;1.40;;
55372;SDS011;70018;47.838;16.490;2023-05-07T17:54:40;2.00;;;1.70;;
55372;SDS011;70018;47.838;16.490;2023-05-07T17:57:07;3.60;;;2.65;;
55372;SDS011;70018;47.838;16.490;2023-05-07T17:59:34;3.22;;;2.20;;
55372;SDS011;70018;47.838;16.490;2023-05-07T18:02:00;4.32;;;1.88;;
55372;SDS011;70018;47.838;16.490;2023-05-07T18:04:27;3.38;;;1.77;;
55372;SDS011;70018;47.838;16.490;2023-05-07T18:06:53;3.55;;;2.50;;
55372;SDS011;70018;47.838;16.490;2023-05-07T18:09:20;4.03;;;2.10;;
55372;SDS011;70018;47.838;16.490;2023-05-07T18:11:47;3.30;;;2.03;;
55372;SDS011;70018;47.838;16.490;2023-05-07T18:14:13;3.20;;;2.63;;
55372;SDS011;70018;47.838;16.490;2023-05-07T18:16:40;3.03;;;1.90;;
55372;SDS011;70018;47.838;16.490;2023-05-07T18:19:06;2.97;;;2.60;;
55372;SDS011;70018;47.838;16.490;2023-05-07T18:21:33;2.90;;;2.60;;
55372;SDS011;70018;47.838;16.490;2023-05-07T18:23:59;2.95;;;2.60;;
55372;SDS011;70018;47.838;16.490;2023-05-07T18:26:26;4.35;;;3.47;;
55372;SDS011;70018;47.838;16.490;2023-05-07T18:28:53;4.32;;;3.83;;
55372;SDS011;70018;47.838;16.490;2023-05-07T18:31:19;2.47;;;2.20;;
55372;SDS011;70018;47.838;16.490;2023-05-07T18:33:46;4.18;;;3.55;;
55372;SDS011;70018;47.838;16.490;2023-05-07T18:36:16;2.92;;;2.47;;
55372;SDS011;70018;47.838;16.490;2023-05-07T18:38:43;4.90;;;3.60;;
55372;SDS011;70018;47.838;16.490;2023-05-07T18:41:09;3.58;;;2.85;;
55372;SDS011;70018;47.838;16.490;2023-05-07T18:43:36;4.07;;;3.20;;
55372;SDS011;70018;47.838;16.490;2023-05-07T18:46:02;3.25;;;2.40;;
55372;SDS011;70018;47.838;16.490;2023-05-07T18:48:29;3.50;;;2.95;;
55372;SDS011;70018;47.838;16.490;2023-05-07T18:50:56;5.72;;;3.15;;
55372;SDS011;70018;47.838;16.490;2023-05-07T18:53:23;4.82;;;3.97;;
55372;SDS011;70018;47.838;16.490;2023-05-07T18:55:50;4.07;;;2.70;;
55372;SDS011;70018;47.838;16.490;2023-05-07T18:58:17;5.35;;;4.53;;
55372;SDS011;70018;47.838;16.490;2023-05-07T19:00:48;5.80;;;4.60;;
55372;SDS011;70018;47.838;16.490;2023-05-07T19:03:15;5.75;;;4.78;;
55372;SDS011;70018;47.838;16.490;2023-05-07T19:05:43;8.77;;;4.50;;
55372;SDS011;70018;47.838;16.490;2023-05-07T19:08:10;7.13;;;5.25;;
55372;SDS011;70018;47.838;16.490;2023-05-07T19:10:37;6.82;;;5.55;;
55372;SDS011;70018;47.838;16.490;2023-05-07T19:13:04;5.85;;;4.20;;
55372;SDS011;70018;47.838;16.490;2023-05-07T19:15:31;7.63;;;5.85;;
55372;SDS011;70018;47.838;16.490;2023-05-07T19:17:57;9.23;;;5.07;;
55372;SDS011;70018;47.838;16.490;2023-05-07T19:20:24;7.13;;;4.65;;
55372;SDS011;70018;47.838;16.490;2023-05-07T19:22:51;6.55;;;5.47;;
55372;SDS011;70018;47.838;16.490;2023-05-07T19:25:17;7.90;;;5.68;;
55372;SDS011;70018;47.838;16.490;2023-05-07T19:27:44;8.23;;;6.30;;
55372;SDS011;70018;47.838;16.490;2023-05-07T19:30:12;8.30;;;5.57;;
55372;SDS011;70018;47.838;16.490;2023-05-07T19:32:39;11.27;;;8.43;;
55372;SDS011;70018;47.838;16.490;2023-05-07T19:35:06;7.50;;;6.07;;
55372;SDS011;70018;47.838;16.490;2023-05-07T19:37:33;10.77;;;6.95;;
55372;SDS011;70018;47.838;16.490;2023-05-07T19:40:00;8.00;;;5.80;;
55372;SDS011;70018;47.838;16.490;2023-05-07T19:42:30;10.73;;;8.27;;
55372;SDS011;70018;47.838;16.490;2023-05-07T19:44:57;10.90;;;7.80;;
55372;SDS011;70018;47.838;16.490;2023-05-07T19:47:24;7.10;;;5.72;;
55372;SDS011;70018;47.838;16.490;2023-05-07T19:49:51;8.70;;;4.80;;
55372;SDS011;70018;47.838;16.490;2023-05-07T19:52:17;6.00;;;4.22;;
55372;SDS011;70018;47.838;16.490;2023-05-07T19:54:44;4.95;;;3.92;;
55372;SDS011;70018;47.838;16.490;2023-05-07T19:57:10;7.43;;;5.03;;
55372;SDS011;70018;47.838;16.490;2023-05-07T19:59:37;9.25;;;4.60;;
55372;SDS011;70018;47.838;16.490;2023-05-07T20:02:04;5.10;;;4.15;;
55372;SDS011;70018;47.838;16.490;2023-05-07T20:04:30;5.28;;;3.90;;
55372;SDS011;70018;47.838;16.490;2023-05-07T20:07:02;5.45;;;3.88;;
55372;SDS011;70018;47.838;16.490;2023-05-07T20:09:29;5.57;;;4.05;;
55372;SDS011;70018;47.838;16.490;2023-05-07T20:11:56;6.18;;;4.95;;
55372;SDS011;70018;47.838;16.490;2023-05-07T20:14:22;7.47;;;4.22;;
55372;SDS011;70018;47.838;16.490;2023-05-07T20:16:49;6.38;;;4.90;;
55372;SDS011;70018;47.838;16.490;2023-05-07T20:19:16;7.07;;;5.22;;
55372;SDS011;70018;47.838;16.490;2023-05-07T20:21:43;6.25;;;5.22;;
55372;SDS011;70018;47.838;16.490;2023-05-07T20:24:10;7.45;;;6.00;;
55372;SDS011;70018;47.838;16.490;2023-05-07T20:26:36;8.80;;;6.07;;
55372;SDS011;70018;47.838;16.490;2023-05-07T20:29:03;8.43;;;5.80;;
55372;SDS011;70018;47.838;16.490;2023-05-07T20:31:30;6.80;;;5.07;;
55372;SDS011;70018;47.838;16.490;2023-05-07T20:34:00;8.13;;;5.97;;
55372;SDS011;70018;47.838;16.490;2023-05-07T20:36:26;7.20;;;5.78;;
55372;SDS011;70018;47.838;16.490;2023-05-07T20:38:54;9.90;;;7.50;;
55372;SDS011;70018;47.838;16.490;2023-05-07T20:41:21;9.32;;;6.45;;
55372;SDS011;70018;47.838;16.490;2023-05-07T20:43:50;8.63;;;5.40;;
55372;SDS011;70018;47.838;16.490;2023-05-07T20:46:16;6.97;;;5.32;;
55372;SDS011;70018;47.838;16.490;2023-05-07T20:48:45;8.23;;;6.63;;
55372;SDS011;70018;47.838;16.490;2023-05-07T20:51:12;7.40;;;6.20;;
55372;SDS011;70018;47.838;16.490;2023-05-07T20:53:41;8.77;;;6.10;;
55372;SDS011;70018;47.838;16.490;2023-05-07T20:56:12;11.07;;;7.90;;
55372;SDS011;70018;47.838;16.490;2023-05-07T20:58:39;7.68;;;5.88;;
55372;SDS011;70018;47.838;16.490;2023-05-07T21:01:05;8.13;;;6.22;;
55372;SDS011;70018;47.838;16.490;2023-05-07T21:03:32;7.68;;;6.30;;
55372;SDS011;70018;47.838;16.490;2023-05-07T21:05:59;7.45;;;5.70;;
55372;SDS011;70018;47.838;16.490;2023-05-07T21:08:25;8.25;;;6.22;;
55372;SDS011;70018;47.838;16.490;2023-05-07T21:10:52;11.80;;;7.95;;
55372;SDS011;70018;47.838;16.490;2023-05-07T21:13:19;10.65;;;7.05;;
55372;SDS011;70018;47.838;16.490;2023-05-07T21:15:46;7.88;;;5.78;;
55372;SDS011;70018;47.838;16.490;2023-05-07T21:18:13;10.13;;;7.00;;
55372;SDS011;70018;47.838;16.490;2023-05-07T21:20:40;8.00;;;6.32;;
55372;SDS011;70018;47.838;16.490;2023-05-07T21:23:06;7.85;;;5.60;;
55372;SDS011;70018;47.838;16.490;2023-05-07T21:25:35;10.07;;;7.45;;
55372;SDS011;70018;47.838;16.490;2023-05-07T21:28:06;5.85;;;4.80;;
55372;SDS011;70018;47.838;16.490;2023-05-07T21:30:33;9.18;;;6.00;;
55372;SDS011;70018;47.838;16.490;2023-05-07T21:33:00;9.98;;;7.13;;
55372;SDS011;70018;47.838;16.490;2023-05-07T21:35:27;8.45;;;4.45;;
55372;SDS011;70018;47.838;16.490;2023-05-07T21:37:53;7.63;;;5.63;;
55372;SDS011;70018;47.838;16.490;2023-05-07T21:40:20;6.25;;;5.30;;
55372;SDS011;70018;47.838;16.490;2023-05-07T21:42:47;6.72;;;4.97;;
55372;SDS011;70018;47.838;16.490;2023-05-07T21:45:13;8.10;;;6.00;;
55372;SDS011;70018;47.838;16.490;2023-05-07T21:47:40;7.88;;;5.45;;
55372;SDS011;70018;47.838;16.490;2023-05-07T21:50:06;6.78;;;5.90;;
55372;SDS011;70018;47.838;16.490;2023-05-07T21:52:33;7.55;;;5.10;;
55372;SDS011;70018;47.838;16.490;2023-05-07T21:55:00;6.75;;;5.30;;
55372;SDS011;70018;47.838;16.490;2023-05-07T21:57:27;6.00;;;5.15;;
55372;SDS011;70018;47.838;16.490;2023-05-07T21:59:54;5.68;;;4.90;;
55372;SDS011;70018;47.838;16.490;2023-05-07T22:02:20;7.90;;;5.20;;
55372;SDS011;70018;47.838;16.490;2023-05-07T22:04:47;8.40;;;6.25;;
55372;SDS011;70018;47.838;16.490;2023-05-07T22:07:14;6.07;;;4.63;;
55372;SDS011;70018;47.838;16.490;2023-05-07T22:09:40;9.70;;;5.70;;
55372;SDS011;70018;47.838;16.490;2023-05-07T22:12:07;8.40;;;6.47;;
55372;SDS011;70018;47.838;16.490;2023-05-07T22:14:33;6.32;;;5.32;;
55372;SDS011;70018;47.838;16.490;2023-05-07T22:17:00;6.68;;;5.78;;
55372;SDS011;70018;47.838;16.490;2023-05-07T22:19:27;7.85;;;6.53;;
55372;SDS011;70018;47.838;16.490;2023-05-07T22:21:54;6.40;;;5.47;;
55372;SDS011;70018;47.838;16.490;2023-05-07T22:24:20;10.05;;;6.15;;
55372;SDS011;70018;47.838;16.490;2023-05-07T22:26:47;12.05;;;6.68;;
55372;SDS011;70018;47.838;16.490;2023-05-07T22:29:14;8.85;;;6.28;;
55372;SDS011;70018;47.838;16.490;2023-05-07T22:31:40;7.07;;;5.05;;
55372;SDS011;70018;47.838;16.490;2023-05-07T22:34:07;9.07;;;6.75;;
55372;SDS011;70018;47.838;16.490;2023-05-07T22:36:34;8.95;;;6.30;;
55372;SDS011;70018;47.838;16.490;2023-05-07T22:39:00;10.48;;;7.20;;
55372;SDS011;70018;47.838;16.490;2023-05-07T22:41:28;9.23;;;7.45;;
55372;SDS011;70018;47.838;16.490;2023-05-07T22:43:54;10.82;;;8.23;;
55372;SDS011;70018;47.838;16.490;2023-05-07T22:46:21;8.38;;;6.35;;
55372;SDS011;70018;47.838;16.490;2023-05-07T22:48:48;8.68;;;6.38;;
55372;SDS011;70018;47.838;16.490;2023-05-07T22:51:14;6.35;;;4.70;;
55372;SDS011;70018;47.838;16.490;2023-05-07T22:53:41;8.15;;;5.95;;
55372;SDS011;70018;47.838;16.490;2023-05-07T22:56:07;8.73;;;6.28;;
55372;SDS011;70018;47.838;16.490;2023-05-07T22:58:35;8.27;;;5.97;;
55372;SDS011;70018;47.838;16.490;2023-05-07T23:01:01;8.23;;;6.13;;
55372;SDS011;70018;47.838;16.490;2023-05-07T23:03:28;8.80;;;6.53;;
55372;SDS011;70018;47.838;16.490;2023-05-07T23:05:55;6.28;;;5.35;;
55372;SDS011;70018;47.838;16.490;2023-05-07T23:08:21;8.50;;;5.38;;
55372;SDS011;70018;47.838;16.490;2023-05-07T23:10:48;5.97;;;4.53;;
55372;SDS011;70018;47.838;16.490;2023-05-07T23:13:15;5.88;;;4.80;;
55372;SDS011;70018;47.838;16.490;2023-05-07T23:15:42;6.93;;;4.30;;
55372;SDS011;70018;47.838;16.490;2023-05-07T23:18:09;6.55;;;4.60;;
55372;SDS011;70018;47.838;16.490;2023-05-07T23:20:36;6.53;;;5.07;;
55372;SDS011;70018;47.838;16.490;2023-05-07T23:23:04;7.38;;;5.18;;
55372;SDS011;70018;47.838;16.490;2023-05-07T23:25:31;6.35;;;5.03;;
55372;SDS011;70018;47.838;16.490;2023-05-07T23:27:58;7.00;;;5.05;;
55372;SDS011;70018;47.838;16.490;2023-05-07T23:30:24;5.47;;;4.10;;
55372;SDS011;70018;47.838;16.490;2023-05-07T23:32:51;6.13;;;4.35;;
55372;SDS011;70018;47.838;16.490;2023-05-07T23:35:18;6.65;;;4.15;;
55372;SDS011;70018;47.838;16.490;2023-05-07T23:37:45;6.22;;;5.20;;
55372;SDS011;70018;47.838;16.490;2023-05-07T23:40:11;5.30;;;3.95;;
55372;SDS011;70018;47.838;16.490;2023-05-07T23:42:38;6.05;;;4.97;;
55372;SDS011;70018;47.838;16.490;2023-05-07T23:45:05;6.00;;;4.53;;
55372;SDS011;70018;47.838;16.490;2023-05-07T23:47:32;5.00;;;4.03;;
55372;SDS011;70018;47.838;16.490;2023-05-07T23:49:59;7.68;;;5.38;;
55372;SDS011;70018;47.838;16.490;2023-05-07T23:52:25;6.18;;;4.63;;
55372;SDS011;70018;47.838;16.490;2023-05-07T23:54:52;7.55;;;5.45;;
55372;SDS011;70018;47.838;16.490;2023-05-07T23:57:18;9.10;;;6.07;;
55372;SDS011;70018;47.838;16.490;2023-05-07T23:59:45;8.18;;;6.15;;
